Time;durP1;ratioP1;P1;durP2;ratioP2;P2;SDS_P1;SDS_P2;PMS_P1;PMS_P2;Temp;Humidity;BMP_temperature;BMP_pressure;BME280_temperature;BME280_humidity;BME280_pressure;Samples;Min_cycle;Max_cycle;Signal;HPM_P1;HPM_P2
2022/03/01 00:01:17;;;;;;;11.77;9.60;;;;;;;1.88;82.90;95560.13;5075700;28;20508;-85
2022/03/01 00:03:44;;;;;;;13.45;9.60;;;;;;;1.90;83.26;95553.16;5056873;28;20206;-85
2022/03/01 00:06:10;;;;;;;11.38;9.80;;;;;;;1.88;83.48;95549.78;5074990;28;20194;-85
2022/03/01 00:08:37;;;;;;;12.85;9.27;;;;;;;1.83;83.53;95543.06;5074941;28;20205;-85
2022/03/01 00:11:06;;;;;;;17.52;11.20;;;;;;;1.87;83.07;95548.94;5074861;28;20204;-85
2022/03/01 00:13:33;;;;;;;12.77;10.35;;;;;;;1.88;82.32;95547.19;5075249;28;20243;-84
2022/03/01 00:16:00;;;;;;;18.88;10.38;;;;;;;1.86;82.18;95548.09;5075154;28;20205;-85
2022/03/01 00:18:27;;;;;;;12.50;9.02;;;;;;;1.81;81.66;95533.66;5075263;28;20547;-84
2022/03/01 00:20:54;;;;;;;14.20;8.77;;;;;;;1.89;81.27;95538.53;5075104;28;20290;-85
2022/03/01 00:23:21;;;;;;;12.93;8.77;;;;;;;1.86;81.38;95540.34;5074799;28;20304;-84
2022/03/01 00:25:48;;;;;;;15.65;8.65;;;;;;;1.88;80.48;95529.09;5074843;28;20318;-85
2022/03/01 00:28:16;;;;;;;10.45;8.60;;;;;;;1.81;80.32;95533.66;5073643;28;20208;-85
2022/03/01 00:30:43;;;;;;;13.57;9.48;;;;;;;1.73;80.65;95528.78;5073892;28;20197;-85
2022/03/01 00:33:10;;;;;;;16.90;9.30;;;;;;;1.70;81.07;95521.16;5074683;28;20198;-84
2022/03/01 00:35:37;;;;;;;12.75;9.20;;;;;;;1.68;81.31;95527.28;5074691;28;20482;-85
2022/03/01 00:38:04;;;;;;;12.25;8.10;;;;;;;1.63;80.78;95518.88;5074606;28;20231;-86
2022/03/01 00:40:31;;;;;;;11.30;7.63;;;;;;;1.54;80.93;95517.50;5074577;28;20538;-85
2022/03/01 00:42:58;;;;;;;10.02;7.50;;;;;;;1.54;80.72;95517.50;5074192;28;20259;-85
2022/03/01 00:45:27;;;;;;;8.90;7.50;;;;;;;1.48;80.87;95523.75;5074371;28;20679;-85
2022/03/01 00:47:54;;;;;;;11.30;8.43;;;;;;;1.43;80.97;95515.31;5074210;28;20188;-85
2022/03/01 00:50:21;;;;;;;16.48;8.68;;;;;;;1.39;81.30;95523.25;5074628;28;20201;-85
2022/03/01 00:52:48;;;;;;;10.68;8.32;;;;;;;1.30;81.30;95516.72;5074494;28;20294;-84
2022/03/01 00:55:15;;;;;;;14.43;9.20;;;;;;;1.24;81.51;95511.78;5073994;28;20203;-85
2022/03/01 00:57:42;;;;;;;13.38;9.80;;;;;;;1.18;80.81;95512.88;5074095;28;20531;-85
2022/03/01 01:03:32;;;;;;;11.68;7.18;;;;;;;1.03;81.32;95503.09;5073236;28;20206;-84
2022/03/01 01:05:59;;;;;;;14.98;7.15;;;;;;;0.96;81.37;95504.25;5074263;28;20219;-85
2022/03/01 01:08:26;;;;;;;8.65;7.03;;;;;;;0.96;81.30;95501.66;5074564;28;20636;-84
2022/03/01 01:10:53;;;;;;;11.63;6.90;;;;;;;0.97;81.90;95505.91;5074269;28;20194;-84
2022/03/01 01:13:20;;;;;;;8.25;7.00;;;;;;;0.91;81.33;95509.59;5074023;28;20449;-85
2022/03/01 01:15:47;;;;;;;7.85;6.18;;;;;;;0.90;81.77;95501.88;5073639;28;20316;-85
2022/03/01 01:18:14;;;;;;;9.20;6.78;;;;;;;0.86;82.13;95505.47;5073480;28;20655;-83
2022/03/01 01:20:43;;;;;;;8.85;7.20;;;;;;;0.83;81.74;95503.84;5073763;28;20650;-84
2022/03/01 01:23:10;;;;;;;7.65;6.75;;;;;;;0.84;82.12;95507.25;5073667;28;20204;-84
2022/03/01 01:25:37;;;;;;;7.88;6.30;;;;;;;0.79;82.24;95506.59;5073358;28;20243;-84
2022/03/01 01:38:16;;;;;;;17.27;7.05;;;;;;;0.63;82.33;95484.81;5073604;28;20221;-85
2022/03/01 01:40:43;;;;;;;11.60;7.15;;;;;;;0.56;81.63;95482.44;5073780;28;20655;-85
2022/03/01 01:43:10;;;;;;;9.50;7.20;;;;;;;0.52;81.11;95490.38;5073593;28;20279;-84
2022/03/01 01:45:37;;;;;;;14.32;7.57;;;;;;;0.53;81.03;95487.72;5073328;28;20218;-85
2022/03/01 01:48:05;;;;;;;10.13;7.80;;;;;;;0.52;80.84;95491.19;5073206;28;20649;-84
2022/03/01 02:00:39;;;;;;;12.07;7.00;;;;;;;0.33;80.54;95479.88;5072537;28;20610;-84
2022/03/01 02:03:06;;;;;;;12.10;6.53;;;;;;;0.36;80.48;95478.91;5073641;28;20572;-85
2022/03/01 02:05:33;;;;;;;13.98;7.53;;;;;;;0.37;80.27;95480.59;5073165;28;20274;-85
2022/03/01 02:08:00;;;;;;;13.27;8.82;;;;;;;0.39;79.81;95471.06;5074123;28;20214;-85
2022/03/01 02:10:27;;;;;;;14.48;8.05;;;;;;;0.36;80.49;95466.84;5073382;28;20202;-84
2022/03/01 02:12:55;;;;;;;14.27;6.90;;;;;;;0.32;80.37;95467.88;5073173;28;20690;-84
2022/03/01 02:15:23;;;;;;;16.98;8.00;;;;;;;0.26;81.57;95471.47;5072979;28;20214;-85
2022/03/01 02:17:51;;;;;;;15.35;8.50;;;;;;;0.22;81.60;95457.00;5073413;28;20195;-84
2022/03/01 02:24:00;;;;;;;10.93;7.15;;;;;;;0.26;80.89;95450.84;5077058;28;20270;-85
2022/03/01 02:26:27;;;;;;;14.27;7.00;;;;;;;0.24;79.61;95438.88;5058967;28;20237;-84
2022/03/01 02:28:54;;;;;;;9.52;8.02;;;;;;;0.24;79.44;95434.56;5076704;28;20289;-85
2022/03/01 02:31:21;;;;;;;10.35;7.00;;;;;;;0.21;80.17;95439.00;5076986;28;20190;-84
2022/03/01 02:33:47;;;;;;;11.73;6.15;;;;;;;0.14;80.11;95432.38;5077076;28;20285;-84
2022/03/01 02:36:14;;;;;;;6.78;5.85;;;;;;;0.04;80.85;95431.88;5076952;28;20297;-84
2022/03/01 02:38:41;;;;;;;9.80;6.00;;;;;;;0.06;81.08;95439.56;5076942;28;20205;-84
2022/03/01 02:41:10;;;;;;;8.48;5.45;;;;;;;-0.05;80.10;95435.59;5076680;28;20214;-84
2022/03/01 02:43:37;;;;;;;8.13;5.95;;;;;;;-0.10;80.63;95440.09;5076404;28;20633;-85
2022/03/01 02:46:04;;;;;;;10.13;7.25;;;;;;;-0.11;80.07;95443.56;5076935;28;20191;-84
2022/03/01 02:55:14;;;;;;;6.63;5.13;;;;;;;-0.17;79.99;95443.78;5075552;28;20221;-84
2022/03/01 02:57:43;;;;;;;5.35;4.68;;;;;;;-0.17;79.67;95443.78;5076512;28;20195;-84
2022/03/01 03:00:11;;;;;;;7.25;5.25;;;;;;;-0.20;79.97;95440.47;5076308;28;20209;-84
2022/03/01 03:02:38;;;;;;;7.32;4.65;;;;;;;-0.23;80.29;95436.25;5076495;28;20209;-84
2022/03/01 03:05:07;;;;;;;6.72;5.22;;;;;;;-0.24;80.32;95457.78;5076277;28;20566;-85
2022/03/01 03:07:34;;;;;;;5.70;4.50;;;;;;;-0.24;80.55;95442.31;5041207;28;20876;-85
2022/03/01 03:10:01;;;;;;;4.97;4.50;;;;;;;-0.30;80.37;95445.06;5077378;28;20210;-84
2022/03/01 03:12:29;;;;;;;5.28;4.45;;;;;;;-0.24;80.77;95442.31;5085512;28;20209;-84
2022/03/01 03:14:57;;;;;;;6.07;5.30;;;;;;;-0.24;80.48;95450.03;5068628;28;20233;-84
2022/03/01 03:17:24;;;;;;;6.20;4.90;;;;;;;-0.24;81.33;95446.63;5090442;28;20226;-83
2022/03/01 03:19:51;;;;;;;7.55;4.68;;;;;;;-0.23;80.56;95444.00;5077834;28;20206;-84
2022/03/01 03:22:19;;;;;;;4.43;4.00;;;;;;;-0.21;80.09;95446.50;5057428;28;20238;-84
2022/03/01 03:24:46;;;;;;;8.10;4.95;;;;;;;-0.22;80.13;95463.72;5076280;28;20583;-85
2022/03/01 03:27:13;;;;;;;4.82;4.43;;;;;;;-0.25;78.80;95463.81;5076120;28;20198;-84
2022/03/01 03:29:40;;;;;;;4.82;4.32;;;;;;;-0.29;79.36;95464.78;5076386;28;20872;-84
2022/03/01 03:32:09;;;;;;;4.97;4.13;;;;;;;-0.30;80.15;95463.13;5075767;28;20269;-84
2022/03/01 03:34:36;;;;;;;4.95;4.45;;;;;;;-0.31;79.56;95467.44;5075639;28;20231;-84
2022/03/01 03:37:04;;;;;;;10.43;5.35;;;;;;;-0.33;79.79;95470.94;5075525;28;20278;-82
2022/03/01 03:39:31;;;;;;;6.05;5.05;;;;;;;-0.31;80.42;95461.44;5075651;28;20558;-84
2022/03/01 03:41:58;;;;;;;5.90;4.60;;;;;;;-0.27;80.27;95464.78;5075588;28;20196;-84
2022/03/01 03:44:25;;;;;;;5.20;4.43;;;;;;;-0.22;80.11;95465.47;5076078;28;20638;-84
2022/03/01 03:46:52;;;;;;;6.05;5.05;;;;;;;-0.21;79.88;95465.41;5075760;28;20233;-83
2022/03/01 03:49:22;;;;;;;5.72;4.40;;;;;;;-0.19;79.98;95452.47;5056885;28;20198;-85
2022/03/01 03:51:50;;;;;;;5.20;4.25;;;;;;;-0.16;79.36;95460.94;5074920;28;20207;-82
2022/03/01 03:54:17;;;;;;;4.82;4.32;;;;;;;-0.10;79.50;95460.72;5074737;28;20206;-82
2022/03/01 03:56:44;;;;;;;4.53;4.00;;;;;;;-0.20;79.86;95451.63;5074772;28;20289;-82
2022/03/01 03:59:11;;;;;;;6.38;5.18;;;;;;;-0.18;80.68;95452.41;5074793;28;20225;-83
2022/03/01 04:01:38;;;;;;;5.15;4.65;;;;;;;-0.20;80.72;95461.09;5074826;28;20661;-82
2022/03/01 04:04:08;;;;;;;5.72;5.10;;;;;;;-0.25;80.10;95458.66;5074507;28;20652;-82
2022/03/01 04:06:36;;;;;;;5.30;4.53;;;;;;;-0.26;79.78;95459.56;5074580;28;20206;-81
2022/03/01 04:09:04;;;;;;;6.15;4.40;;;;;;;-0.33;78.92;95458.91;5074817;28;20225;-83
2022/03/01 04:11:31;;;;;;;5.65;3.88;;;;;;;-0.42;79.09;95458.38;5074910;28;20238;-82
2022/03/01 04:13:58;;;;;;;5.93;5.07;;;;;;;-0.47;79.63;95455.13;5074649;28;20734;-82
2022/03/01 04:16:27;;;;;;;4.78;4.03;;;;;;;-0.51;80.81;95451.81;5074965;28;20697;-82
2022/03/01 04:18:55;;;;;;;5.70;4.20;;;;;;;-0.49;81.37;95451.75;5074781;28;20198;-83
2022/03/01 04:21:22;;;;;;;6.63;4.80;;;;;;;-0.49;81.06;95454.31;5075007;28;20201;-83
2022/03/01 04:23:50;;;;;;;5.93;4.60;;;;;;;-0.57;79.92;95448.59;5075000;28;20309;-83
2022/03/01 04:26:17;;;;;;;6.38;4.50;;;;;;;-0.64;79.57;95459.06;5074364;28;20238;-83
2022/03/01 04:28:45;;;;;;;7.35;4.03;;;;;;;-0.69;80.18;95452.38;5075047;28;20210;-85
2022/03/01 04:31:12;;;;;;;4.68;3.78;;;;;;;-0.75;79.81;95440.53;5074553;28;20190;-83
2022/03/01 04:33:54;;;;;;;5.10;3.83;;;;;;;-0.65;80.11;95449.66;5074568;28;20190;-83
2022/03/01 04:36:21;;;;;;;5.60;3.95;;;;;;;-0.68;78.91;95454.91;5074391;28;20218;-83
2022/03/01 04:38:48;;;;;;;4.82;4.30;;;;;;;-0.72;78.25;95453.31;5073793;28;20204;-83
2022/03/01 04:41:17;;;;;;;4.40;4.05;;;;;;;-0.83;79.04;95447.69;5073411;28;20203;-83
2022/03/01 04:43:44;;;;;;;4.07;3.65;;;;;;;-0.77;79.50;95455.22;5055465;28;20214;-84
2022/03/01 04:46:11;;;;;;;3.83;3.47;;;;;;;-0.79;82.45;95461.31;5073744;28;20209;-85
2022/03/01 04:48:38;;;;;;;5.22;3.88;;;;;;;-0.57;91.39;95452.00;5074536;28;20240;-85
2022/03/01 04:51:06;;;;;;;4.47;4.05;;;;;;;-0.57;87.29;95449.44;5074020;28;20210;-82
2022/03/01 04:53:33;;;;;;;3.88;3.30;;;;;;;-0.57;82.91;95464.06;5073223;28;20199;-82
2022/03/01 04:56:00;;;;;;;4.50;4.10;;;;;;;-0.63;80.82;95465.06;5073689;28;20219;-83
2022/03/01 04:58:28;;;;;;;5.10;4.63;;;;;;;-0.77;79.29;95475.81;5073829;28;20202;-83
2022/03/01 05:00:55;;;;;;;5.95;3.90;;;;;;;-0.84;78.02;95476.06;5073625;28;20248;-82
2022/03/01 05:03:23;;;;;;;5.35;3.92;;;;;;;-1.00;77.92;95470.53;5073481;28;20197;-80
2022/03/01 05:05:51;;;;;;;8.90;5.60;;;;;;;-1.03;78.89;95470.63;5073909;28;20532;-82
2022/03/01 05:08:18;;;;;;;6.07;4.43;;;;;;;-0.98;78.99;95476.47;5073023;28;20208;-80
2022/03/01 05:10:44;;;;;;;5.10;4.60;;;;;;;-0.94;78.53;95480.66;5072427;28;20201;-79
2022/03/01 05:13:11;;;;;;;5.75;5.25;;;;;;;-0.96;79.07;95477.28;5072231;28;20199;-81
2022/03/01 05:15:40;;;;;;;6.78;6.07;;;;;;;-1.03;79.83;95480.94;5052825;28;20715;-83
2022/03/01 05:18:07;;;;;;;9.43;6.72;;;;;;;-1.04;80.13;95485.25;5072421;28;20254;-87
2022/03/01 05:20:34;;;;;;;18.95;11.07;;;;;;;-1.03;80.14;95483.50;5073888;28;20217;-81
2022/03/01 05:23:01;;;;;;;29.38;16.70;;;;;;;-1.09;80.26;95475.97;5073733;28;20208;-81
2022/03/01 05:25:28;;;;;;;30.98;16.33;;;;;;;-1.08;80.57;95486.22;5073802;28;20238;-81
2022/03/01 05:27:55;;;;;;;26.63;15.60;;;;;;;-1.10;81.09;95482.03;5073997;28;20230;-80
2022/03/01 05:30:23;;;;;;;24.67;15.63;;;;;;;-0.99;80.95;95487.69;5073106;28;20446;-83
2022/03/01 05:32:53;;;;;;;18.52;12.57;;;;;;;-0.92;80.24;95491.75;5073622;28;20198;-80
2022/03/01 05:35:21;;;;;;;13.10;10.23;;;;;;;-0.87;80.26;95497.59;5073532;28;20214;-81
2022/03/01 05:41:10;;;;;;;7.55;6.22;;;;;;;-0.82;78.83;95490.59;5072790;28;20209;-81
2022/03/01 05:43:39;;;;;;;6.70;5.20;;;;;;;-0.80;78.94;95498.28;5073560;28;20194;-82
2022/03/01 05:46:06;;;;;;;6.75;4.80;;;;;;;-0.76;79.22;95492.97;5073502;28;20601;-81
2022/03/01 05:48:34;;;;;;;4.10;3.70;;;;;;;-0.68;78.80;95488.41;5038535;28;20217;-82
2022/03/01 06:01:35;;;;;;;7.03;4.85;;;;;;;0.87;73.58;95507.19;5059227;28;20170;-85
2022/03/01 06:04:03;;;;;;;6.72;5.40;;;;;;;1.25;73.83;95516.06;5057940;28;20614;-81
2022/03/01 06:06:30;;;;;;;7.90;6.32;;;;;;;1.40;72.32;95512.84;5057301;28;20203;-82
2022/03/01 06:08:57;;;;;;;8.98;5.75;;;;;;;1.55;69.59;95521.78;5057275;28;20193;-80
2022/03/01 06:11:24;;;;;;;6.40;4.10;;;;;;;1.55;68.94;95511.44;5057050;28;20645;-81
2022/03/01 06:13:51;;;;;;;5.82;4.95;;;;;;;2.02;69.32;95519.84;5057238;28;20193;-81
2022/03/01 06:16:18;;;;;;;5.70;5.03;;;;;;;2.71;67.62;95514.31;5056771;28;20220;-81
2022/03/01 06:18:45;;;;;;;6.10;5.53;;;;;;;3.27;65.30;95509.16;5056914;28;20443;-81
2022/03/01 06:21:14;;;;;;;5.97;5.00;;;;;;;3.80;63.47;95517.91;5056865;28;20437;-82
2022/03/01 06:23:40;;;;;;;6.23;5.30;;;;;;;4.22;61.85;95518.41;5057076;28;20450;-81
2022/03/01 06:26:09;;;;;;;4.67;4.20;;;;;;;4.43;60.95;95515.66;5056698;28;20470;-82
2022/03/01 06:28:36;;;;;;;6.15;5.13;;;;;;;4.29;59.29;95504.19;5056399;28;20530;-83
2022/03/01 06:31:03;;;;;;;6.10;4.50;;;;;;;4.25;60.05;95518.25;5056727;28;20192;-82
2022/03/01 06:33:30;;;;;;;7.13;5.40;;;;;;;4.00;61.10;95515.16;5038503;28;20449;-81
2022/03/01 06:35:57;;;;;;;7.07;5.27;;;;;;;3.76;60.34;95517.22;5057049;28;20500;-81
2022/03/01 06:38:26;;;;;;;7.70;6.47;;;;;;;3.46;62.38;95506.53;5056847;28;20434;-82
2022/03/01 06:40:56;;;;;;;9.20;6.80;;;;;;;3.31;62.86;95515.88;5057122;28;20430;-82
2022/03/01 06:43:23;;;;;;;8.50;7.60;;;;;;;3.13;63.38;95508.09;5056328;28;20440;-82
2022/03/01 06:45:50;;;;;;;6.97;6.17;;;;;;;3.02;64.49;95504.25;5056605;28;20433;-82
2022/03/01 06:48:17;;;;;;;5.53;4.57;;;;;;;3.30;65.20;95509.00;5038290;28;20452;-81
2022/03/01 06:50:44;;;;;;;8.70;4.70;;;;;;;3.58;65.10;95505.97;5037985;28;20461;-82
2022/03/01 06:53:13;;;;;;;5.50;4.50;;;;;;;3.94;64.92;95498.16;5056189;28;20948;-82
2022/03/01 06:55:42;;;;;;;8.93;5.40;;;;;;;4.50;64.54;95506.63;5057110;28;20567;-82
2022/03/01 06:58:09;;;;;;;10.63;6.00;;;;;;;5.07;62.84;95505.34;5056119;28;20440;-82
2022/03/01 07:00:36;;;;;;;7.77;6.93;;;;;;;5.58;60.92;95514.69;5056166;28;20444;-82
2022/03/01 07:23:14;;;;;;;7.70;5.90;;;;;;;8.51;52.92;95488.91;5055118;28;20448;-84
2022/03/01 07:25:41;;;;;;;10.80;6.43;;;;;;;8.81;53.53;95493.03;5058230;28;20478;-85
2022/03/01 07:28:08;;;;;;;11.73;7.67;;;;;;;8.98;50.22;95492.72;5066087;28;20454;-83
2022/03/01 07:30:35;;;;;;;7.20;5.60;;;;;;;9.09;50.84;95489.34;5055665;28;20434;-84
2022/03/01 07:33:02;;;;;;;9.97;6.47;;;;;;;9.12;50.90;95489.97;5067881;28;20461;-85
2022/03/01 07:35:29;;;;;;;10.10;7.07;;;;;;;9.03;49.64;95488.00;5075675;28;20440;-84
2022/03/01 07:48:03;;;;;;;7.80;7.00;;;;;;;8.23;51.17;95479.44;5054606;28;20468;-83
2022/03/01 07:50:31;;;;;;;9.70;6.30;;;;;;;7.77;51.97;95474.56;5056109;28;20426;-86
2022/03/01 07:52:59;;;;;;;9.00;7.70;;;;;;;7.87;53.66;95472.22;5040659;28;20529;-83
2022/03/01 07:55:26;;;;;;;7.93;6.00;;;;;;;7.66;52.06;95482.28;5072627;28;20545;-83
2022/03/01 07:57:53;;;;;;;13.70;8.33;;;;;;;6.96;53.92;95478.03;5075404;28;20432;-83
2022/03/01 08:00:21;;;;;;;9.67;8.30;;;;;;;5.79;56.61;95476.19;5072986;28;20820;-83
2022/03/01 08:02:48;;;;;;;12.00;7.07;;;;;;;5.97;56.26;95483.91;5074991;28;21165;-87
2022/03/01 08:05:16;;;;;;;9.70;8.20;;;;;;;6.17;56.21;95491.41;5075671;28;20471;-86
2022/03/01 08:07:43;;;;;;;9.17;7.53;;;;;;;6.34;60.19;95483.44;5076106;28;20463;-85
2022/03/01 08:10:11;;;;;;;15.77;10.97;;;;;;;5.97;57.26;95494.31;5075334;28;20536;-85
2022/03/01 08:12:38;;;;;;;7.20;6.50;;;;;;;5.95;57.03;95493.56;5075759;28;20760;-86
2022/03/01 08:15:05;;;;;;;9.00;6.90;;;;;;;5.98;57.35;95491.63;5075836;28;20502;-85
2022/03/01 08:17:32;;;;;;;8.30;6.40;;;;;;;6.11;59.28;95487.41;5074887;28;20993;-85
2022/03/01 08:19:59;;;;;;;8.47;7.27;;;;;;;6.34;58.45;95490.41;5074068;28;20437;-85
2022/03/01 08:22:28;;;;;;;9.40;5.80;;;;;;;5.73;58.28;95492.16;5074657;28;20437;-84
2022/03/01 08:24:55;;;;;;;9.33;6.90;;;;;;;5.80;60.62;95487.44;5074606;28;20496;-85
2022/03/01 08:27:22;;;;;;;6.37;5.50;;;;;;;5.84;59.91;95483.75;5074982;28;20440;-84
2022/03/01 08:29:49;;;;;;;6.70;5.53;;;;;;;5.65;58.25;95488.28;5075478;28;20455;-85
2022/03/01 08:32:16;;;;;;;10.00;6.03;;;;;;;5.24;59.04;95484.47;5075049;28;20433;-84
2022/03/01 08:34:43;;;;;;;5.67;5.17;;;;;;;5.45;62.20;95490.22;5075765;28;20531;-85
2022/03/01 08:37:10;;;;;;;9.00;7.50;;;;;;;5.32;60.20;95493.59;5074879;28;20476;-86
2022/03/01 08:39:38;;;;;;;11.77;8.50;;;;;;;4.58;61.41;95486.25;5075126;28;20449;-86
2022/03/01 08:42:05;;;;;;;15.33;10.63;;;;;;;4.44;62.97;95497.38;5056671;28;20454;-86
2022/03/01 08:44:32;;;;;;;6.53;5.70;;;;;;;4.26;62.52;95487.91;5073883;28;21016;-86
2022/03/01 08:46:59;;;;;;;15.53;9.43;;;;;;;4.43;64.51;95484.47;5074019;28;20448;-84
2022/03/01 08:49:26;;;;;;;17.20;10.70;;;;;;;4.02;64.22;95482.19;5074977;28;20489;-86
2022/03/01 08:51:53;;;;;;;10.73;7.70;;;;;;;3.96;65.70;95493.72;5074870;28;20924;-84
2022/03/01 08:54:20;;;;;;;7.30;6.50;;;;;;;3.85;65.49;95498.59;5074834;28;20445;-87
2022/03/01 08:56:48;;;;;;;11.90;6.83;;;;;;;4.16;65.98;95490.13;5071983;28;20555;-85
2022/03/01 08:59:15;;;;;;;9.83;6.87;;;;;;;4.65;67.06;95491.09;5074125;28;20971;-85
2022/03/01 09:01:42;;;;;;;9.60;6.47;;;;;;;4.92;65.09;95490.56;5073415;28;20927;-84
2022/03/01 09:04:09;;;;;;;7.73;6.67;;;;;;;4.65;63.80;95491.09;5074182;28;20467;-86
2022/03/01 09:16:45;;;;;;;5.80;5.20;;;;;;;3.80;65.85;95495.41;5074318;28;20498;-86
2022/03/01 09:19:12;;;;;;;9.43;7.67;;;;;;;3.56;66.69;95505.19;5074762;28;20451;-86
2022/03/01 09:21:39;;;;;;;13.50;7.67;;;;;;;3.62;66.23;95499.72;5074656;28;20449;-85
2022/03/01 09:24:06;;;;;;;10.00;6.80;;;;;;;3.68;66.71;95507.19;5074984;28;20550;-87
2022/03/01 09:26:33;;;;;;;8.80;7.70;;;;;;;3.68;67.27;95507.19;5074673;28;20479;-86
2022/03/01 09:29:01;;;;;;;7.43;6.60;;;;;;;3.65;67.24;95506.50;5074813;28;20463;-85
2022/03/01 09:31:28;;;;;;;9.40;6.30;;;;;;;3.39;66.56;95505.13;5074369;28;20464;-89
2022/03/01 09:33:57;;;;;;;7.80;6.73;;;;;;;3.68;66.59;95503.75;5074472;28;20460;-88
2022/03/01 09:53:14;;;;;;;35.63;21.67;;;;;;;4.07;65.78;95506.19;5074162;28;20461;-90
2022/03/01 09:55:42;;;;;;;10.97;8.20;;;;;;;4.22;63.92;95495.03;5074187;28;20464;-88
2022/03/01 09:58:09;;;;;;;6.00;5.40;;;;;;;4.31;63.98;95499.75;5074769;28;20567;-88
2022/03/01 10:00:36;;;;;;;8.17;7.30;;;;;;;4.24;64.87;95487.97;5074646;28;20472;-92
2022/03/01 10:03:03;;;;;;;8.80;6.73;;;;;;;4.38;64.28;95484.72;5073862;28;20432;-88
2022/03/01 10:05:37;;;;;;;12.83;9.40;;;;;;;4.58;64.59;95488.84;5074309;28;20448;-88
2022/03/01 10:08:09;;;;;;;8.47;6.90;;;;;;;4.68;65.55;95484.03;5075065;28;20536;-88
2022/03/01 10:14:05;;;;;;;8.80;6.93;;;;;;;5.07;63.72;95476.72;5073684;28;20403;-87
2022/03/01 10:16:38;;;;;;;10.20;7.23;;;;;;;5.18;63.18;95483.94;5074172;28;20473;-83
2022/03/01 10:19:11;;;;;;;9.37;6.37;;;;;;;4.94;61.29;95467.91;5073548;28;20447;-85
2022/03/01 10:21:38;;;;;;;11.07;9.20;;;;;;;4.88;61.66;95476.84;5073226;28;20452;-86
2022/03/01 10:24:08;;;;;;;8.57;6.27;;;;;;;4.58;63.03;95483.66;5073293;28;20449;-85
2022/03/01 10:26:37;;;;;;;6.83;6.13;;;;;;;4.81;63.63;95470.31;5073182;28;20436;-84
2022/03/01 10:29:08;;;;;;;7.63;6.23;;;;;;;5.04;62.20;95474.28;5073218;28;20796;-84
2022/03/01 10:31:36;;;;;;;8.13;7.23;;;;;;;4.69;60.80;95476.16;5073410;28;20432;-84
2022/03/01 10:34:05;;;;;;;9.07;7.30;;;;;;;4.90;61.33;95467.22;5072670;28;20456;-83
2022/03/01 10:36:34;;;;;;;11.43;8.90;;;;;;;5.19;67.99;95465.63;5072981;28;20476;-83
2022/03/01 10:39:04;;;;;;;7.70;5.57;;;;;;;5.32;61.38;95455.41;5072768;28;20847;-85
2022/03/01 10:41:33;;;;;;;5.97;5.37;;;;;;;5.56;61.57;95454.06;5073660;28;20455;-85
2022/03/01 10:44:03;;;;;;;9.50;6.97;;;;;;;5.48;59.94;95451.03;5075660;28;20452;-88
2022/03/01 10:46:37;;;;;;;7.93;5.97;;;;;;;5.49;58.62;95455.34;5078504;28;20453;-89
2022/03/01 10:49:09;;;;;;;8.27;6.40;;;;;;;5.30;57.92;95449.47;5077727;28;20456;-86
2022/03/01 10:51:47;;;;;;;11.70;8.53;;;;;;;5.16;61.12;95445.00;5076448;28;20865;-86
2022/03/01 10:54:24;;;;;;;7.60;6.30;;;;;;;4.69;60.71;95450.16;5076165;28;20435;-86
2022/03/01 10:56:54;;;;;;;8.30;6.30;;;;;;;4.65;60.42;95446.06;5075827;28;20475;-86
2022/03/01 10:59:21;;;;;;;6.33;5.50;;;;;;;4.85;63.01;95444.97;5075849;28;20480;-87
2022/03/01 11:01:49;;;;;;;9.27;5.70;;;;;;;5.06;62.39;95440.38;5075920;28;20786;-86
2022/03/01 11:04:16;;;;;;;12.43;6.20;;;;;;;4.91;61.81;95444.63;5075905;28;20459;-87
2022/03/01 11:06:44;;;;;;;7.47;5.90;;;;;;;4.60;62.04;95441.06;5076018;28;20449;-87
2022/03/01 11:09:13;;;;;;;8.50;6.20;;;;;;;4.61;63.93;95442.75;5075411;28;20455;-80
2022/03/01 11:11:41;;;;;;;8.43;7.53;;;;;;;4.64;64.63;95436.59;5076671;28;20532;-87
2022/03/01 11:14:10;;;;;;;5.87;5.17;;;;;;;4.35;64.81;95431.16;5076533;28;20516;-87
2022/03/01 11:16:54;;;;;;;6.87;5.60;;;;;;;4.28;64.98;95429.75;5076446;28;20491;-87
2022/03/01 11:19:48;;;;;;;11.33;8.10;;;;;;;4.47;64.98;95424.47;5076319;28;20535;-86
2022/03/01 11:22:23;;;;;;;12.83;9.10;;;;;;;4.35;64.39;95410.38;5076908;28;20458;-87
2022/03/01 11:24:50;;;;;;;8.67;6.40;;;;;;;4.48;65.27;95413.16;5076716;28;21021;-85
2022/03/01 11:27:22;;;;;;;7.17;6.10;;;;;;;4.68;65.08;95419.91;5076081;28;20435;-86
2022/03/01 11:29:50;;;;;;;8.60;7.40;;;;;;;4.76;64.45;95415.13;5075789;28;20453;-85
2022/03/01 11:32:22;;;;;;;8.80;6.63;;;;;;;4.86;63.85;95410.25;5075840;28;20464;-87
2022/03/01 11:35:01;;;;;;;9.53;7.73;;;;;;;5.04;64.44;95398.88;5075753;28;20436;-88
2022/03/01 11:37:28;;;;;;;12.20;7.87;;;;;;;5.12;62.63;95411.44;5076125;28;20503;-86
2022/03/01 11:39:56;;;;;;;8.47;6.30;;;;;;;5.20;62.73;95402.31;5075922;28;20452;-86
2022/03/01 11:42:23;;;;;;;5.60;5.07;;;;;;;5.20;60.68;95404.03;5075770;28;20977;-85
2022/03/01 11:44:53;;;;;;;12.53;7.53;;;;;;;5.03;62.35;95401.56;5075925;28;20429;-86
2022/03/01 11:47:28;;;;;;;9.93;7.60;;;;;;;5.08;61.78;95392.56;5075002;28;20533;-85
2022/03/01 11:53:19;;;;;;;11.07;8.37;;;;;;;5.35;61.73;95398.00;5075953;28;20428;-88
2022/03/01 11:55:50;;;;;;;8.53;7.17;;;;;;;5.08;61.53;95383.94;5075094;28;20547;-86
2022/03/01 11:58:19;;;;;;;12.90;8.87;;;;;;;4.69;61.45;95382.59;5040533;28;20484;-87
2022/03/01 12:00:47;;;;;;;8.03;6.83;;;;;;;4.75;61.44;95382.25;5078404;28;20433;-85
2022/03/01 12:06:38;;;;;;;8.70;6.97;;;;;;;4.91;59.08;95380.47;5073992;28;20460;-85
2022/03/01 12:09:07;;;;;;;7.23;4.93;;;;;;;5.05;58.64;95371.09;5075226;28;20447;-86
2022/03/01 12:11:37;;;;;;;6.90;6.27;;;;;;;5.08;59.25;95363.94;5075386;28;20437;-85
2022/03/01 12:14:07;;;;;;;8.80;6.20;;;;;;;5.12;57.96;95359.41;5075497;28;20445;-86
2022/03/01 12:16:34;;;;;;;9.87;5.57;;;;;;;5.00;60.27;95354.91;5074846;28;20444;-86
2022/03/01 12:19:07;;;;;;;23.70;14.90;;;;;;;5.06;58.75;95359.75;5075198;28;20441;-83
2022/03/01 12:21:37;;;;;;;8.40;7.33;;;;;;;5.21;60.42;95351.94;5075162;28;20931;-85
2022/03/01 12:24:05;;;;;;;7.80;6.17;;;;;;;5.26;58.26;95347.31;5075414;28;20445;-86
2022/03/01 12:29:55;;;;;;;9.63;6.20;;;;;;;5.36;57.68;95350.22;5072950;28;21074;-87
2022/03/01 12:32:22;;;;;;;11.63;7.13;;;;;;;5.19;56.74;95350.34;5073958;28;20559;-87
2022/03/01 12:34:49;;;;;;;15.70;11.70;;;;;;;4.91;54.71;95344.06;5073658;28;20455;-86
2022/03/01 12:37:18;;;;;;;11.30;6.53;;;;;;;5.05;57.12;95364.13;5073483;28;20837;-87
2022/03/01 12:39:46;;;;;;;17.00;12.03;;;;;;;4.54;57.52;95358.25;5074197;28;20455;-87
2022/03/01 12:42:13;;;;;;;7.57;5.80;;;;;;;4.66;58.06;95355.00;5073766;28;20847;-87
2022/03/01 12:44:42;;;;;;;7.10;6.30;;;;;;;4.74;58.39;95357.19;5073954;28;20445;-87
2022/03/01 12:47:09;;;;;;;11.30;6.87;;;;;;;4.73;57.15;95352.91;5073733;28;20542;-86
2022/03/01 12:49:37;;;;;;;10.40;7.73;;;;;;;4.71;56.90;95359.09;5072683;28;20444;-87
2022/03/01 12:52:05;;;;;;;24.13;12.10;;;;;;;4.74;57.43;95357.19;5073223;28;20459;-88
2022/03/01 12:54:35;;;;;;;12.43;9.33;;;;;;;4.79;56.48;95351.72;5055058;28;20433;-87
2022/03/01 12:57:05;;;;;;;11.37;9.00;;;;;;;4.85;56.65;95354.81;5073305;28;20531;-87
2022/03/01 12:59:34;;;;;;;9.70;8.70;;;;;;;4.85;56.71;95352.22;5073952;28;20449;-86
2022/03/01 13:02:04;;;;;;;11.03;9.70;;;;;;;4.94;57.91;95350.88;5069658;28;20453;-87
2022/03/01 13:04:32;;;;;;;9.47;8.03;;;;;;;4.89;59.55;95343.31;5064110;28;20437;-87
2022/03/01 13:07:00;;;;;;;6.40;5.40;;;;;;;4.92;56.35;95350.97;5074532;28;20501;-87
2022/03/01 13:09:27;;;;;;;5.63;5.13;;;;;;;4.68;57.81;95341.09;5074587;28;20614;-88
2022/03/01 13:11:56;;;;;;;4.37;4.07;;;;;;;4.90;57.84;95345.00;5055603;28;20447;-87
2022/03/01 13:14:24;;;;;;;20.10;11.47;;;;;;;4.89;58.76;95340.72;5068000;28;20445;-87
2022/03/01 13:16:53;;;;;;;11.77;8.73;;;;;;;4.50;59.85;95335.09;5060552;28;20446;-87
2022/03/01 13:19:22;;;;;;;7.23;6.50;;;;;;;4.53;60.58;95335.78;4999089;28;20444;-87
2022/03/01 13:21:51;;;;;;;7.10;6.50;;;;;;;4.47;61.85;95330.91;5074237;28;20947;-87
2022/03/01 13:24:22;;;;;;;6.77;5.57;;;;;;;4.23;60.68;95340.00;5054612;28;20446;-81
2022/03/01 13:26:51;;;;;;;7.73;6.30;;;;;;;4.22;62.27;95330.53;5054760;28;20438;-88
2022/03/01 13:39:24;;;;;;;8.00;6.83;;;;;;;4.15;62.90;95324.84;5053680;28;20402;-86
2022/03/01 13:41:57;;;;;;;8.90;7.50;;;;;;;4.18;63.52;95329.03;5053905;28;20442;-91
2022/03/01 13:44:26;;;;;;;10.43;8.40;;;;;;;4.12;64.14;95326.78;5053870;28;20465;-86
2022/03/01 13:47:01;;;;;;;7.57;6.77;;;;;;;3.96;63.54;95324.13;5054414;28;20454;-86
2022/03/01 13:49:31;;;;;;;13.20;8.87;;;;;;;4.17;64.24;95338.59;5054424;28;20451;-86